sensor_id;sensor_type;location;lat;lon;timestamp;P1;durP1;ratioP1;P2;durP2;ratioP2
52136;SDS011;69622;49.570;10.986;2023-08-12T00:01:38;7.57;;;4.53;;
52136;SDS011;69622;49.570;10.986;2023-08-12T00:04:40;12.65;;;4.97;;
52136;SDS011;69622;49.570;10.986;2023-08-12T00:07:41;13.85;;;4.75;;
52136;SDS011;69622;49.570;10.986;2023-08-12T00:10:43;9.15;;;4.57;;
52136;SDS011;69622;49.570;10.986;2023-08-12T00:13:44;9.30;;;5.43;;
52136;SDS011;69622;49.570;10.986;2023-08-12T00:16:46;8.10;;;4.45;;
52136;SDS011;69622;49.570;10.986;2023-08-12T00:19:47;13.57;;;4.72;;
52136;SDS011;69622;49.570;10.986;2023-08-12T00:22:49;5.43;;;3.97;;
52136;SDS011;69622;49.570;10.986;2023-08-12T00:25:50;7.25;;;4.30;;
52136;SDS011;69622;49.570;10.986;2023-08-12T00:28:52;7.78;;;4.60;;
52136;SDS011;69622;49.570;10.986;2023-08-12T00:31:53;11.30;;;5.05;;
52136;SDS011;69622;49.570;10.986;2023-08-12T00:34:55;8.85;;;5.30;;
52136;SDS011;69622;49.570;10.986;2023-08-12T00:37:57;15.18;;;4.93;;
52136;SDS011;69622;49.570;10.986;2023-08-12T00:40:58;14.98;;;5.80;;
52136;SDS011;69622;49.570;10.986;2023-08-12T00:44:00;8.57;;;4.90;;
52136;SDS011;69622;49.570;10.986;2023-08-12T00:47:01;12.57;;;5.38;;
52136;SDS011;69622;49.570;10.986;2023-08-12T00:50:03;17.75;;;5.53;;
52136;SDS011;69622;49.570;10.986;2023-08-12T00:53:05;9.30;;;5.72;;
52136;SDS011;69622;49.570;10.986;2023-08-12T00:56:07;15.32;;;5.07;;
52136;SDS011;69622;49.570;10.986;2023-08-12T00:59:09;17.25;;;5.30;;
52136;SDS011;69622;49.570;10.986;2023-08-12T01:02:11;10.40;;;4.88;;
52136;SDS011;69622;49.570;10.986;2023-08-12T01:05:14;7.82;;;5.15;;
52136;SDS011;69622;49.570;10.986;2023-08-12T01:08:18;12.88;;;5.18;;
52136;SDS011;69622;49.570;10.986;2023-08-12T01:11:28;9.55;;;5.35;;
52136;SDS011;69622;49.570;10.986;2023-08-12T01:17:53;15.85;;;6.82;;
52136;SDS011;69622;49.570;10.986;2023-08-12T01:20:55;12.73;;;5.53;;
52136;SDS011;69622;49.570;10.986;2023-08-12T01:23:57;13.68;;;5.75;;
52136;SDS011;69622;49.570;10.986;2023-08-12T01:26:59;14.48;;;5.28;;
52136;SDS011;69622;49.570;10.986;2023-08-12T01:30:00;14.05;;;6.70;;
52136;SDS011;69622;49.570;10.986;2023-08-12T01:33:46;9.50;;;5.55;;
52136;SDS011;69622;49.570;10.986;2023-08-12T01:36:32;17.23;;;6.40;;
52136;SDS011;69622;49.570;10.986;2023-08-12T01:39:37;10.68;;;5.45;;
52136;SDS011;69622;49.570;10.986;2023-08-12T01:42:40;7.38;;;4.85;;
52136;SDS011;69622;49.570;10.986;2023-08-12T01:45:44;10.63;;;5.32;;
52136;SDS011;69622;49.570;10.986;2023-08-12T01:48:45;15.18;;;5.53;;
52136;SDS011;69622;49.570;10.986;2023-08-12T01:51:46;10.00;;;5.22;;
52136;SDS011;69622;49.570;10.986;2023-08-12T01:54:48;10.85;;;4.85;;
52136;SDS011;69622;49.570;10.986;2023-08-12T01:57:50;7.97;;;4.55;;
52136;SDS011;69622;49.570;10.986;2023-08-12T02:00:52;8.02;;;5.43;;
52136;SDS011;69622;49.570;10.986;2023-08-12T02:03:54;5.43;;;4.93;;
52136;SDS011;69622;49.570;10.986;2023-08-12T02:06:55;7.63;;;5.15;;
52136;SDS011;69622;49.570;10.986;2023-08-12T02:09:57;10.77;;;5.10;;
52136;SDS011;69622;49.570;10.986;2023-08-12T02:12:58;6.57;;;4.65;;
52136;SDS011;69622;49.570;10.986;2023-08-12T02:16:00;7.72;;;4.60;;
52136;SDS011;69622;49.570;10.986;2023-08-12T02:19:01;5.75;;;4.28;;
52136;SDS011;69622;49.570;10.986;2023-08-12T02:22:03;6.47;;;4.47;;
52136;SDS011;69622;49.570;10.986;2023-08-12T02:25:06;6.10;;;5.28;;
52136;SDS011;69622;49.570;10.986;2023-08-12T02:28:08;8.43;;;5.57;;
52136;SDS011;69622;49.570;10.986;2023-08-12T02:31:09;7.50;;;5.00;;
52136;SDS011;69622;49.570;10.986;2023-08-12T02:34:11;8.18;;;4.85;;
52136;SDS011;69622;49.570;10.986;2023-08-12T02:37:12;9.35;;;5.32;;
52136;SDS011;69622;49.570;10.986;2023-08-12T02:40:14;8.43;;;5.40;;
52136;SDS011;69622;49.570;10.986;2023-08-12T02:43:16;8.50;;;4.93;;
52136;SDS011;69622;49.570;10.986;2023-08-12T02:46:18;9.73;;;4.85;;
52136;SDS011;69622;49.570;10.986;2023-08-12T02:49:20;5.95;;;4.47;;
52136;SDS011;69622;49.570;10.986;2023-08-12T02:52:21;5.88;;;5.28;;
52136;SDS011;69622;49.570;10.986;2023-08-12T02:55:23;12.15;;;5.00;;
52136;SDS011;69622;49.570;10.986;2023-08-12T02:58:24;6.60;;;5.03;;
52136;SDS011;69622;49.570;10.986;2023-08-12T03:01:26;11.82;;;5.32;;
52136;SDS011;69622;49.570;10.986;2023-08-12T03:04:29;7.82;;;4.60;;
52136;SDS011;69622;49.570;10.986;2023-08-12T03:07:30;8.00;;;5.25;;
52136;SDS011;69622;49.570;10.986;2023-08-12T03:10:33;6.25;;;4.88;;
52136;SDS011;69622;49.570;10.986;2023-08-12T03:13:35;4.82;;;4.00;;
52136;SDS011;69622;49.570;10.986;2023-08-12T03:16:36;12.30;;;5.00;;
52136;SDS011;69622;49.570;10.986;2023-08-12T03:19:37;8.15;;;4.75;;
52136;SDS011;69622;49.570;10.986;2023-08-12T03:22:39;7.10;;;5.25;;
52136;SDS011;69622;49.570;10.986;2023-08-12T03:25:40;6.10;;;4.47;;
52136;SDS011;69622;49.570;10.986;2023-08-12T03:28:42;7.07;;;5.35;;
52136;SDS011;69622;49.570;10.986;2023-08-12T03:31:43;5.03;;;4.28;;
52136;SDS011;69622;49.570;10.986;2023-08-12T03:34:45;7.55;;;4.72;;
52136;SDS011;69622;49.570;10.986;2023-08-12T03:40:56;9.75;;;4.88;;
52136;SDS011;69622;49.570;10.986;2023-08-12T03:43:58;8.45;;;4.88;;
52136;SDS011;69622;49.570;10.986;2023-08-12T03:46:59;7.05;;;5.20;;
52136;SDS011;69622;49.570;10.986;2023-08-12T03:50:01;14.77;;;5.30;;
52136;SDS011;69622;49.570;10.986;2023-08-12T03:53:02;9.88;;;5.03;;
52136;SDS011;69622;49.570;10.986;2023-08-12T03:56:04;5.63;;;5.05;;
52136;SDS011;69622;49.570;10.986;2023-08-12T03:59:05;7.28;;;4.68;;
52136;SDS011;69622;49.570;10.986;2023-08-12T04:02:07;14.32;;;7.25;;
52136;SDS011;69622;49.570;10.986;2023-08-12T04:05:09;18.95;;;8.05;;
52136;SDS011;69622;49.570;10.986;2023-08-12T04:08:10;18.63;;;7.38;;
52136;SDS011;69622;49.570;10.986;2023-08-12T04:11:11;16.63;;;7.90;;
52136;SDS011;69622;49.570;10.986;2023-08-12T04:14:13;29.40;;;10.60;;
52136;SDS011;69622;49.570;10.986;2023-08-12T04:17:15;23.95;;;11.52;;
52136;SDS011;69622;49.570;10.986;2023-08-12T04:20:17;24.80;;;10.10;;
52136;SDS011;69622;49.570;10.986;2023-08-12T04:23:18;26.15;;;9.90;;
52136;SDS011;69622;49.570;10.986;2023-08-12T04:26:20;21.92;;;10.32;;
52136;SDS011;69622;49.570;10.986;2023-08-12T04:29:22;20.05;;;8.90;;
52136;SDS011;69622;49.570;10.986;2023-08-12T04:32:23;22.33;;;8.70;;
52136;SDS011;69622;49.570;10.986;2023-08-12T04:35:25;16.48;;;7.97;;
52136;SDS011;69622;49.570;10.986;2023-08-12T04:38:27;20.60;;;8.15;;
52136;SDS011;69622;49.570;10.986;2023-08-12T04:41:28;10.10;;;7.15;;
52136;SDS011;69622;49.570;10.986;2023-08-12T04:44:30;18.35;;;7.97;;
52136;SDS011;69622;49.570;10.986;2023-08-12T04:47:32;15.25;;;7.00;;
52136;SDS011;69622;49.570;10.986;2023-08-12T04:50:33;14.18;;;6.07;;
52136;SDS011;69622;49.570;10.986;2023-08-12T04:53:36;13.00;;;5.88;;
52136;SDS011;69622;49.570;10.986;2023-08-12T04:56:37;18.63;;;6.13;;
52136;SDS011;69622;49.570;10.986;2023-08-12T04:59:39;10.77;;;5.85;;
52136;SDS011;69622;49.570;10.986;2023-08-12T05:02:40;10.40;;;5.15;;
52136;SDS011;69622;49.570;10.986;2023-08-12T05:05:42;8.85;;;4.93;;
52136;SDS011;69622;49.570;10.986;2023-08-12T05:08:43;15.25;;;5.25;;
52136;SDS011;69622;49.570;10.986;2023-08-12T05:11:45;12.27;;;5.72;;
52136;SDS011;69622;49.570;10.986;2023-08-12T05:14:46;10.75;;;5.30;;
52136;SDS011;69622;49.570;10.986;2023-08-12T05:17:48;8.82;;;5.68;;
52136;SDS011;69622;49.570;10.986;2023-08-12T05:20:50;9.98;;;5.43;;
52136;SDS011;69622;49.570;10.986;2023-08-12T05:23:52;13.02;;;5.65;;
52136;SDS011;69622;49.570;10.986;2023-08-12T05:26:54;7.65;;;5.35;;
52136;SDS011;69622;49.570;10.986;2023-08-12T05:29:55;8.43;;;5.10;;
52136;SDS011;69622;49.570;10.986;2023-08-12T05:32:57;6.90;;;5.30;;
52136;SDS011;69622;49.570;10.986;2023-08-12T05:35:59;9.63;;;5.88;;
52136;SDS011;69622;49.570;10.986;2023-08-12T05:39:00;8.02;;;4.90;;
52136;SDS011;69622;49.570;10.986;2023-08-12T05:42:02;5.60;;;5.00;;
52136;SDS011;69622;49.570;10.986;2023-08-12T05:45:03;5.35;;;4.80;;
52136;SDS011;69622;49.570;10.986;2023-08-12T05:48:08;7.03;;;4.72;;
52136;SDS011;69622;49.570;10.986;2023-08-12T05:51:10;8.45;;;4.50;;
52136;SDS011;69622;49.570;10.986;2023-08-12T05:54:11;7.80;;;4.93;;
52136;SDS011;69622;49.570;10.986;2023-08-12T05:57:13;5.85;;;4.10;;
52136;SDS011;69622;49.570;10.986;2023-08-12T06:00:14;4.38;;;3.53;;
52136;SDS011;69622;49.570;10.986;2023-08-12T06:03:16;6.25;;;4.03;;
52136;SDS011;69622;49.570;10.986;2023-08-12T06:06:18;5.18;;;3.35;;
52136;SDS011;69622;49.570;10.986;2023-08-12T06:09:19;4.40;;;3.80;;
52136;SDS011;69622;49.570;10.986;2023-08-12T06:12:20;4.68;;;3.47;;
52136;SDS011;69622;49.570;10.986;2023-08-12T06:15:22;6.00;;;3.55;;
52136;SDS011;69622;49.570;10.986;2023-08-12T06:18:23;6.68;;;3.63;;
52136;SDS011;69622;49.570;10.986;2023-08-12T06:21:25;5.25;;;4.20;;
52136;SDS011;69622;49.570;10.986;2023-08-12T06:24:26;5.07;;;3.45;;
52136;SDS011;69622;49.570;10.986;2023-08-12T06:27:28;7.03;;;3.80;;
52136;SDS011;69622;49.570;10.986;2023-08-12T06:30:30;5.50;;;3.85;;
52136;SDS011;69622;49.570;10.986;2023-08-12T06:33:31;6.80;;;3.67;;
52136;SDS011;69622;49.570;10.986;2023-08-12T06:36:33;5.13;;;3.30;;
52136;SDS011;69622;49.570;10.986;2023-08-12T06:39:34;4.57;;;3.40;;
52136;SDS011;69622;49.570;10.986;2023-08-12T06:42:36;4.45;;;3.67;;
52136;SDS011;69622;49.570;10.986;2023-08-12T06:45:37;4.00;;;3.03;;
52136;SDS011;69622;49.570;10.986;2023-08-12T06:48:39;6.68;;;3.88;;
52136;SDS011;69622;49.570;10.986;2023-08-12T06:51:40;9.43;;;4.35;;
52136;SDS011;69622;49.570;10.986;2023-08-12T06:54:42;4.35;;;3.90;;
52136;SDS011;69622;49.570;10.986;2023-08-12T06:57:43;5.18;;;3.70;;
52136;SDS011;69622;49.570;10.986;2023-08-12T07:00:45;7.10;;;3.80;;
52136;SDS011;69622;49.570;10.986;2023-08-12T07:03:46;5.25;;;3.88;;
52136;SDS011;69622;49.570;10.986;2023-08-12T07:06:48;6.45;;;3.83;;
52136;SDS011;69622;49.570;10.986;2023-08-12T07:09:49;8.82;;;3.33;;
52136;SDS011;69622;49.570;10.986;2023-08-12T07:12:51;5.63;;;3.33;;
52136;SDS011;69622;49.570;10.986;2023-08-12T07:15:52;5.85;;;3.45;;
52136;SDS011;69622;49.570;10.986;2023-08-12T07:18:54;6.93;;;3.92;;
52136;SDS011;69622;49.570;10.986;2023-08-12T07:21:55;5.40;;;3.90;;
52136;SDS011;69622;49.570;10.986;2023-08-12T07:24:57;8.23;;;3.70;;
52136;SDS011;69622;49.570;10.986;2023-08-12T07:28:01;7.43;;;4.30;;
52136;SDS011;69622;49.570;10.986;2023-08-12T07:31:02;5.07;;;3.38;;
52136;SDS011;69622;49.570;10.986;2023-08-12T07:34:04;4.32;;;3.45;;
52136;SDS011;69622;49.570;10.986;2023-08-12T07:37:05;4.38;;;3.97;;
52136;SDS011;69622;49.570;10.986;2023-08-12T07:40:07;3.67;;;3.10;;
52136;SDS011;69622;49.570;10.986;2023-08-12T07:43:10;6.93;;;3.83;;
52136;SDS011;69622;49.570;10.986;2023-08-12T07:46:11;6.65;;;3.55;;
52136;SDS011;69622;49.570;10.986;2023-08-12T07:49:13;6.03;;;3.67;;
52136;SDS011;69622;49.570;10.986;2023-08-12T07:52:14;5.72;;;3.10;;
52136;SDS011;69622;49.570;10.986;2023-08-12T07:55:16;4.45;;;3.38;;
52136;SDS011;69622;49.570;10.986;2023-08-12T07:58:17;6.00;;;3.88;;
52136;SDS011;69622;49.570;10.986;2023-08-12T08:01:19;4.72;;;3.78;;
52136;SDS011;69622;49.570;10.986;2023-08-12T08:04:20;5.40;;;3.45;;
52136;SDS011;69622;49.570;10.986;2023-08-12T08:07:22;6.65;;;3.50;;
52136;SDS011;69622;49.570;10.986;2023-08-12T08:10:24;6.13;;;3.55;;
52136;SDS011;69622;49.570;10.986;2023-08-12T08:13:25;5.32;;;3.85;;
52136;SDS011;69622;49.570;10.986;2023-08-12T08:16:27;5.93;;;3.75;;
52136;SDS011;69622;49.570;10.986;2023-08-12T08:19:29;4.88;;;3.85;;
52136;SDS011;69622;49.570;10.986;2023-08-12T08:22:31;8.18;;;3.92;;
52136;SDS011;69622;49.570;10.986;2023-08-12T08:25:33;6.07;;;3.85;;
52136;SDS011;69622;49.570;10.986;2023-08-12T08:28:34;5.95;;;3.17;;
52136;SDS011;69622;49.570;10.986;2023-08-12T08:31:36;5.00;;;3.50;;
52136;SDS011;69622;49.570;10.986;2023-08-12T08:34:37;5.65;;;3.15;;
52136;SDS011;69622;49.570;10.986;2023-08-12T08:37:40;5.03;;;3.13;;
52136;SDS011;69622;49.570;10.986;2023-08-12T08:40:42;5.20;;;3.38;;
52136;SDS011;69622;49.570;10.986;2023-08-12T08:43:43;8.98;;;3.58;;
52136;SDS011;69622;49.570;10.986;2023-08-12T08:46:51;6.00;;;3.45;;
52136;SDS011;69622;49.570;10.986;2023-08-12T08:49:54;5.50;;;4.10;;
52136;SDS011;69622;49.570;10.986;2023-08-12T08:52:57;5.20;;;3.30;;
52136;SDS011;69622;49.570;10.986;2023-08-12T08:55:59;4.25;;;3.10;;
52136;SDS011;69622;49.570;10.986;2023-08-12T08:59:02;3.90;;;3.05;;
52136;SDS011;69622;49.570;10.986;2023-08-12T09:02:04;4.78;;;2.97;;
52136;SDS011;69622;49.570;10.986;2023-08-12T09:05:06;3.75;;;3.45;;
52136;SDS011;69622;49.570;10.986;2023-08-12T09:08:08;3.45;;;3.15;;
52136;SDS011;69622;49.570;10.986;2023-08-12T09:11:12;3.17;;;2.83;;
52136;SDS011;69622;49.570;10.986;2023-08-12T09:14:14;7.10;;;3.65;;
52136;SDS011;69622;49.570;10.986;2023-08-12T09:17:16;3.97;;;3.33;;
52136;SDS011;69622;49.570;10.986;2023-08-12T09:20:17;4.15;;;3.40;;
52136;SDS011;69622;49.570;10.986;2023-08-12T09:23:19;4.40;;;3.15;;
52136;SDS011;69622;49.570;10.986;2023-08-12T09:26:20;3.78;;;3.03;;
52136;SDS011;69622;49.570;10.986;2023-08-12T09:29:22;3.03;;;2.72;;
52136;SDS011;69622;49.570;10.986;2023-08-12T09:32:25;3.25;;;2.88;;
52136;SDS011;69622;49.570;10.986;2023-08-12T09:35:34;5.82;;;3.30;;
52136;SDS011;69622;49.570;10.986;2023-08-12T09:38:39;4.85;;;3.35;;
52136;SDS011;69622;49.570;10.986;2023-08-12T09:41:41;4.20;;;3.40;;
52136;SDS011;69622;49.570;10.986;2023-08-12T09:44:44;5.20;;;3.40;;
52136;SDS011;69622;49.570;10.986;2023-08-12T09:47:45;3.65;;;3.35;;
52136;SDS011;69622;49.570;10.986;2023-08-12T09:50:47;3.20;;;2.90;;
52136;SDS011;69622;49.570;10.986;2023-08-12T09:53:51;3.95;;;3.15;;
52136;SDS011;69622;49.570;10.986;2023-08-12T09:56:57;5.60;;;3.83;;
52136;SDS011;69622;49.570;10.986;2023-08-12T10:00:00;3.58;;;3.13;;
52136;SDS011;69622;49.570;10.986;2023-08-12T10:03:02;3.92;;;3.50;;
52136;SDS011;69622;49.570;10.986;2023-08-12T10:06:05;3.92;;;3.40;;
52136;SDS011;69622;49.570;10.986;2023-08-12T10:09:07;5.72;;;3.15;;
52136;SDS011;69622;49.570;10.986;2023-08-12T10:12:12;5.25;;;3.88;;
52136;SDS011;69622;49.570;10.986;2023-08-12T10:15:19;4.30;;;3.38;;
52136;SDS011;69622;49.570;10.986;2023-08-12T10:18:22;3.97;;;3.47;;
52136;SDS011;69622;49.570;10.986;2023-08-12T10:21:25;5.80;;;4.00;;
52136;SDS011;69622;49.570;10.986;2023-08-12T10:24:27;19.30;;;9.48;;
52136;SDS011;69622;49.570;10.986;2023-08-12T10:27:29;5.28;;;3.70;;
52136;SDS011;69622;49.570;10.986;2023-08-12T10:30:30;4.38;;;3.47;;
52136;SDS011;69622;49.570;10.986;2023-08-12T10:33:36;3.83;;;3.42;;
52136;SDS011;69622;49.570;10.986;2023-08-12T10:36:40;4.00;;;3.60;;
52136;SDS011;69622;49.570;10.986;2023-08-12T10:40:04;5.50;;;4.03;;
52136;SDS011;69622;49.570;10.986;2023-08-12T10:43:11;5.47;;;3.72;;
52136;SDS011;69622;49.570;10.986;2023-08-12T10:46:21;5.13;;;3.90;;
52136;SDS011;69622;49.570;10.986;2023-08-12T10:49:43;4.75;;;3.53;;
52136;SDS011;69622;49.570;10.986;2023-08-12T10:52:52;5.85;;;4.65;;
52136;SDS011;69622;49.570;10.986;2023-08-12T10:55:55;4.82;;;3.90;;
52136;SDS011;69622;49.570;10.986;2023-08-12T10:58:58;4.97;;;3.60;;
52136;SDS011;69622;49.570;10.986;2023-08-12T11:02:06;4.68;;;3.40;;
52136;SDS011;69622;49.570;10.986;2023-08-12T11:05:10;5.28;;;3.92;;
52136;SDS011;69622;49.570;10.986;2023-08-12T11:08:12;5.68;;;4.05;;
52136;SDS011;69622;49.570;10.986;2023-08-12T11:11:23;9.00;;;3.80;;
52136;SDS011;69622;49.570;10.986;2023-08-12T11:14:25;4.22;;;3.83;;
52136;SDS011;69622;49.570;10.986;2023-08-12T11:17:37;4.38;;;3.97;;
52136;SDS011;69622;49.570;10.986;2023-08-12T11:20:40;4.33;;;3.93;;
52136;SDS011;69622;49.570;10.986;2023-08-12T11:23:42;5.65;;;4.10;;
52136;SDS011;69622;49.570;10.986;2023-08-12T11:26:44;4.75;;;4.25;;
52136;SDS011;69622;49.570;10.986;2023-08-12T11:29:47;5.70;;;4.30;;
52136;SDS011;69622;49.570;10.986;2023-08-12T11:32:54;5.90;;;3.80;;
52136;SDS011;69622;49.570;10.986;2023-08-12T11:35:58;5.03;;;4.28;;
52136;SDS011;69622;49.570;10.986;2023-08-12T11:39:00;5.15;;;4.03;;
52136;SDS011;69622;49.570;10.986;2023-08-12T11:42:03;6.30;;;4.15;;
52136;SDS011;69622;49.570;10.986;2023-08-12T11:45:05;4.65;;;4.25;;
52136;SDS011;69622;49.570;10.986;2023-08-12T11:48:08;6.05;;;4.22;;
52136;SDS011;69622;49.570;10.986;2023-08-12T11:51:10;4.40;;;4.05;;
52136;SDS011;69622;49.570;10.986;2023-08-12T11:54:12;5.95;;;4.30;;
52136;SDS011;69622;49.570;10.986;2023-08-12T11:57:14;9.80;;;3.90;;
52136;SDS011;69622;49.570;10.986;2023-08-12T12:00:16;4.57;;;4.18;;
52136;SDS011;69622;49.570;10.986;2023-08-12T12:03:20;5.82;;;4.40;;
52136;SDS011;69622;49.570;10.986;2023-08-12T12:06:31;7.15;;;4.57;;
52136;SDS011;69622;49.570;10.986;2023-08-12T12:09:41;7.93;;;4.50;;
52136;SDS011;69622;49.570;10.986;2023-08-12T12:12:45;4.50;;;3.75;;
52136;SDS011;69622;49.570;10.986;2023-08-12T12:15:47;6.13;;;3.85;;
52136;SDS011;69622;49.570;10.986;2023-08-12T12:18:48;5.63;;;4.65;;
52136;SDS011;69622;49.570;10.986;2023-08-12T12:21:51;7.78;;;4.03;;
52136;SDS011;69622;49.570;10.986;2023-08-12T12:24:53;4.07;;;3.08;;
52136;SDS011;69622;49.570;10.986;2023-08-12T12:27:55;5.68;;;4.15;;
52136;SDS011;69622;49.570;10.986;2023-08-12T12:30:56;4.40;;;3.67;;
52136;SDS011;69622;49.570;10.986;2023-08-12T12:33:57;4.10;;;3.70;;
52136;SDS011;69622;49.570;10.986;2023-08-12T12:36:59;5.25;;;3.88;;
52136;SDS011;69622;49.570;10.986;2023-08-12T12:40:00;3.63;;;3.30;;
52136;SDS011;69622;49.570;10.986;2023-08-12T12:43:04;5.07;;;3.42;;
52136;SDS011;69622;49.570;10.986;2023-08-12T12:46:05;4.28;;;3.88;;
52136;SDS011;69622;49.570;10.986;2023-08-12T12:49:07;5.18;;;4.25;;
52136;SDS011;69622;49.570;10.986;2023-08-12T12:52:08;4.65;;;4.07;;
52136;SDS011;69622;49.570;10.986;2023-08-12T12:55:10;5.70;;;3.50;;
52136;SDS011;69622;49.570;10.986;2023-08-12T12:58:11;4.40;;;3.70;;
52136;SDS011;69622;49.570;10.986;2023-08-12T13:01:12;4.53;;;4.07;;
52136;SDS011;69622;49.570;10.986;2023-08-12T13:04:14;4.13;;;3.65;;
52136;SDS011;69622;49.570;10.986;2023-08-12T13:07:15;6.78;;;3.58;;
52136;SDS011;69622;49.570;10.986;2023-08-12T13:10:17;4.30;;;3.25;;
52136;SDS011;69622;49.570;10.986;2023-08-12T13:13:18;4.22;;;3.83;;
52136;SDS011;69622;49.570;10.986;2023-08-12T13:16:20;4.55;;;3.88;;
52136;SDS011;69622;49.570;10.986;2023-08-12T13:19:21;6.25;;;3.80;;
52136;SDS011;69622;49.570;10.986;2023-08-12T13:22:23;6.15;;;3.67;;
52136;SDS011;69622;49.570;10.986;2023-08-12T13:25:24;4.97;;;3.67;;
52136;SDS011;69622;49.570;10.986;2023-08-12T13:28:26;4.35;;;3.95;;
52136;SDS011;69622;49.570;10.986;2023-08-12T13:31:27;4.05;;;3.65;;
52136;SDS011;69622;49.570;10.986;2023-08-12T13:34:29;3.78;;;3.45;;
52136;SDS011;69622;49.570;10.986;2023-08-12T13:37:31;9.82;;;4.05;;
52136;SDS011;69622;49.570;10.986;2023-08-12T13:40:33;6.03;;;3.60;;
52136;SDS011;69622;49.570;10.986;2023-08-12T13:43:35;6.20;;;3.97;;
52136;SDS011;69622;49.570;10.986;2023-08-12T13:46:36;6.95;;;3.33;;
52136;SDS011;69622;49.570;10.986;2023-08-12T13:49:37;7.40;;;3.97;;
52136;SDS011;69622;49.570;10.986;2023-08-12T13:52:39;5.97;;;3.88;;
52136;SDS011;69622;49.570;10.986;2023-08-12T13:55:41;5.60;;;4.10;;
52136;SDS011;69622;49.570;10.986;2023-08-12T13:58:42;11.98;;;3.03;;
52136;SDS011;69622;49.570;10.986;2023-08-12T14:01:44;8.85;;;2.55;;
52136;SDS011;69622;49.570;10.986;2023-08-12T14:04:46;12.63;;;2.85;;
52136;SDS011;69622;49.570;10.986;2023-08-12T14:07:47;30.75;;;5.53;;
52136;SDS011;69622;49.570;10.986;2023-08-12T14:10:49;9.05;;;2.08;;
52136;SDS011;69622;49.570;10.986;2023-08-12T14:13:51;3.10;;;1.02;;
52136;SDS011;69622;49.570;10.986;2023-08-12T14:16:53;2.80;;;0.90;;
52136;SDS011;69622;49.570;10.986;2023-08-12T14:19:55;1.58;;;0.88;;
52136;SDS011;69622;49.570;10.986;2023-08-12T14:22:56;1.33;;;0.80;;
52136;SDS011;69622;49.570;10.986;2023-08-12T14:25:58;4.97;;;1.45;;
52136;SDS011;69622;49.570;10.986;2023-08-12T14:28:59;6.43;;;1.33;;
52136;SDS011;69622;49.570;10.986;2023-08-12T14:32:01;3.05;;;1.30;;
52136;SDS011;69622;49.570;10.986;2023-08-12T14:35:03;4.15;;;1.60;;
52136;SDS011;69622;49.570;10.986;2023-08-12T14:38:06;3.47;;;1.20;;
52136;SDS011;69622;49.570;10.986;2023-08-12T14:41:08;5.82;;;2.50;;
52136;SDS011;69622;49.570;10.986;2023-08-12T14:44:09;4.07;;;1.50;;
52136;SDS011;69622;49.570;10.986;2023-08-12T14:47:10;6.13;;;1.58;;
52136;SDS011;69622;49.570;10.986;2023-08-12T14:50:12;4.63;;;1.70;;
52136;SDS011;69622;49.570;10.986;2023-08-12T14:53:14;3.15;;;1.33;;
52136;SDS011;69622;49.570;10.986;2023-08-12T14:56:15;3.30;;;1.42;;
52136;SDS011;69622;49.570;10.986;2023-08-12T14:59:17;5.53;;;1.50;;
52136;SDS011;69622;49.570;10.986;2023-08-12T15:02:19;3.22;;;1.50;;
52136;SDS011;69622;49.570;10.986;2023-08-12T15:05:22;2.97;;;1.50;;
52136;SDS011;69622;49.570;10.986;2023-08-12T15:08:23;4.15;;;1.60;;
52136;SDS011;69622;49.570;10.986;2023-08-12T15:11:25;3.53;;;1.30;;
52136;SDS011;69622;49.570;10.986;2023-08-12T15:14:26;8.85;;;1.65;;
52136;SDS011;69622;49.570;10.986;2023-08-12T15:17:28;5.22;;;1.90;;
52136;SDS011;69622;49.570;10.986;2023-08-12T15:20:29;4.18;;;1.55;;
52136;SDS011;69622;49.570;10.986;2023-08-12T15:23:32;4.88;;;1.85;;
52136;SDS011;69622;49.570;10.986;2023-08-12T15:26:36;8.57;;;1.63;;
52136;SDS011;69622;49.570;10.986;2023-08-12T15:29:37;4.55;;;1.88;;
52136;SDS011;69622;49.570;10.986;2023-08-12T15:32:39;5.72;;;1.70;;
52136;SDS011;69622;49.570;10.986;2023-08-12T15:35:43;3.28;;;1.60;;
52136;SDS011;69622;49.570;10.986;2023-08-12T15:38:45;5.60;;;1.90;;
52136;SDS011;69622;49.570;10.986;2023-08-12T15:41:47;4.57;;;2.15;;
52136;SDS011;69622;49.570;10.986;2023-08-12T15:44:49;4.43;;;2.35;;
52136;SDS011;69622;49.570;10.986;2023-08-12T15:47:50;3.45;;;1.83;;
52136;SDS011;69622;49.570;10.986;2023-08-12T15:50:54;6.93;;;2.20;;
52136;SDS011;69622;49.570;10.986;2023-08-12T15:53:56;5.55;;;2.38;;
52136;SDS011;69622;49.570;10.986;2023-08-12T15:56:57;6.10;;;3.25;;
52136;SDS011;69622;49.570;10.986;2023-08-12T15:59:58;5.13;;;2.83;;
52136;SDS011;69622;49.570;10.986;2023-08-12T16:03:00;4.85;;;2.30;;
52136;SDS011;69622;49.570;10.986;2023-08-12T16:06:02;7.28;;;2.92;;
52136;SDS011;69622;49.570;10.986;2023-08-12T16:09:04;5.55;;;2.40;;
52136;SDS011;69622;49.570;10.986;2023-08-12T16:12:19;5.90;;;2.85;;
52136;SDS011;69622;49.570;10.986;2023-08-12T16:15:20;4.78;;;2.45;;
52136;SDS011;69622;49.570;10.986;2023-08-12T16:18:22;4.88;;;2.83;;
52136;SDS011;69622;49.570;10.986;2023-08-12T16:21:24;5.10;;;2.35;;
52136;SDS011;69622;49.570;10.986;2023-08-12T16:24:26;3.63;;;2.60;;
52136;SDS011;69622;49.570;10.986;2023-08-12T16:27:27;4.78;;;2.78;;
52136;SDS011;69622;49.570;10.986;2023-08-12T16:30:29;2.97;;;2.13;;
52136;SDS011;69622;49.570;10.986;2023-08-12T16:33:30;5.22;;;2.53;;
52136;SDS011;69622;49.570;10.986;2023-08-12T16:36:31;3.72;;;2.47;;
52136;SDS011;69622;49.570;10.986;2023-08-12T16:39:33;4.90;;;2.83;;
52136;SDS011;69622;49.570;10.986;2023-08-12T16:42:34;4.35;;;2.60;;
52136;SDS011;69622;49.570;10.986;2023-08-12T16:45:36;5.60;;;2.95;;
52136;SDS011;69622;49.570;10.986;2023-08-12T16:48:38;6.60;;;2.63;;
52136;SDS011;69622;49.570;10.986;2023-08-12T16:51:39;5.63;;;2.88;;
52136;SDS011;69622;49.570;10.986;2023-08-12T16:54:41;4.88;;;2.65;;
52136;SDS011;69622;49.570;10.986;2023-08-12T16:57:42;5.20;;;2.75;;
52136;SDS011;69622;49.570;10.986;2023-08-12T17:00:44;6.03;;;2.72;;
52136;SDS011;69622;49.570;10.986;2023-08-12T17:03:47;4.80;;;2.97;;
52136;SDS011;69622;49.570;10.986;2023-08-12T17:06:49;6.90;;;2.92;;
52136;SDS011;69622;49.570;10.986;2023-08-12T17:09:50;5.80;;;2.63;;
52136;SDS011;69622;49.570;10.986;2023-08-12T17:12:52;6.63;;;2.53;;
52136;SDS011;69622;49.570;10.986;2023-08-12T17:15:54;4.07;;;2.47;;
52136;SDS011;69622;49.570;10.986;2023-08-12T17:18:55;6.05;;;2.83;;
52136;SDS011;69622;49.570;10.986;2023-08-12T17:21:57;4.03;;;2.20;;
52136;SDS011;69622;49.570;10.986;2023-08-12T17:25:00;4.93;;;2.25;;
52136;SDS011;69622;49.570;10.986;2023-08-12T17:28:03;3.70;;;2.20;;
52136;SDS011;69622;49.570;10.986;2023-08-12T17:31:04;6.97;;;2.28;;
52136;SDS011;69622;49.570;10.986;2023-08-12T17:34:07;6.15;;;3.10;;
52136;SDS011;69622;49.570;10.986;2023-08-12T17:37:08;7.35;;;3.38;;
52136;SDS011;69622;49.570;10.986;2023-08-12T17:40:10;9.13;;;8.25;;
52136;SDS011;69622;49.570;10.986;2023-08-12T17:43:12;12.95;;;11.60;;
52136;SDS011;69622;49.570;10.986;2023-08-12T17:46:15;17.08;;;9.27;;
52136;SDS011;69622;49.570;10.986;2023-08-12T17:49:17;9.75;;;5.03;;
52136;SDS011;69622;49.570;10.986;2023-08-12T17:52:19;11.88;;;4.07;;
52136;SDS011;69622;49.570;10.986;2023-08-12T17:55:20;7.15;;;3.90;;
52136;SDS011;69622;49.570;10.986;2023-08-12T17:58:22;7.35;;;4.93;;
52136;SDS011;69622;49.570;10.986;2023-08-12T18:01:23;7.10;;;5.38;;
52136;SDS011;69622;49.570;10.986;2023-08-12T18:04:25;7.65;;;6.28;;
52136;SDS011;69622;49.570;10.986;2023-08-12T18:07:26;8.57;;;4.47;;